createdAt,value
2023-01-28T00:10:02.238Z,18.90
2023-01-28T00:20:06.673Z,20.10
2023-01-28T00:30:12.387Z,15.70
2023-01-28T00:40:15.642Z,12.85
2023-01-28T00:50:24.074Z,18.98
2023-01-28T01:00:27.567Z,17.30
2023-01-28T01:10:34.751Z,14.88
2023-01-28T01:20:40.253Z,13.15
2023-01-28T01:30:44.814Z,16.92
2023-01-28T01:40:47.862Z,19.83
2023-01-28T01:50:56.630Z,16.38
2023-01-28T02:01:00.250Z,16.48
2023-01-28T02:11:07.240Z,15.00
2023-01-28T02:21:54.189Z,14.05
2023-01-28T02:32:06.103Z,13.77
2023-01-28T02:42:14.989Z,15.27
2023-01-28T02:53:12.070Z,7.22
2023-01-28T03:03:20.898Z,9.70
2023-01-28T03:13:43.883Z,7.90
2023-01-28T03:24:11.311Z,6.88
2023-01-28T03:34:33.980Z,8.07
2023-01-28T03:44:55.394Z,4.22
2023-01-28T03:55:02.012Z,3.45
2023-01-28T04:05:07.266Z,1.55
2023-01-28T04:15:17.888Z,2.13
2023-01-28T04:25:20.791Z,5.30
2023-01-28T04:35:33.421Z,1.98
2023-01-28T04:45:36.459Z,0.28
2023-01-28T04:55:41.154Z,1.40
2023-01-28T05:05:44.078Z,0.55
2023-01-28T05:15:53.435Z,0.30
2023-01-28T05:25:59.208Z,1.17
2023-01-28T05:36:04.507Z,0.35
2023-01-28T05:46:07.578Z,0.38
2023-01-28T05:56:15.456Z,0.25
2023-01-28T06:06:18.392Z,0.52
2023-01-28T06:16:22.630Z,0.20
2023-01-28T06:26:25.563Z,1.00
2023-01-28T06:36:29.712Z,0.63
2023-01-28T06:46:33.673Z,0.28
2023-01-28T06:56:38.186Z,2.90
2023-01-28T07:06:41.378Z,0.43
2023-01-28T07:16:47.679Z,0.32
2023-01-28T07:26:51.103Z,0.85
2023-01-28T07:36:58.565Z,1.35
2023-01-28T07:47:01.624Z,1.23
2023-01-28T07:57:10.323Z,0.98
2023-01-28T08:07:13.535Z,0.88
2023-01-28T08:17:18.936Z,0.73
2023-01-28T08:27:21.938Z,0.63
2023-01-28T08:37:26.178Z,0.55
2023-01-28T08:47:32.146Z,2.03
2023-01-28T08:57:38.840Z,1.42
2023-01-28T09:07:42.384Z,3.20
2023-01-28T09:17:49.367Z,5.50
2023-01-28T09:27:52.311Z,3.08
2023-01-28T09:38:02.675Z,1.60
2023-01-28T09:48:10.639Z,1.92
2023-01-28T09:58:20.775Z,4.07
2023-01-28T10:08:44.177Z,4.72
2023-01-28T10:18:56.742Z,2.45
2023-01-28T10:29:18.127Z,3.17
2023-01-28T10:39:26.903Z,9.98
2023-01-28T10:49:32.150Z,4.38
2023-01-28T10:59:42.188Z,5.07
2023-01-28T11:09:47.743Z,5.05
2023-01-28T11:20:02.859Z,4.72
2023-01-28T11:30:20.989Z,6.05
2023-01-28T11:40:26.521Z,3.47
2023-01-28T11:50:50.153Z,4.88
2023-01-28T12:01:05.332Z,1.02
2023-01-28T12:11:48.703Z,2.42
2023-01-28T12:22:17.879Z,8.50
2023-01-28T12:32:40.830Z,2.88
2023-01-28T12:42:52.834Z,5.25
2023-01-28T12:53:01.952Z,1.95
2023-01-28T13:03:20.121Z,2.70
2023-01-28T13:13:42.698Z,1.83
2023-01-28T13:24:09.509Z,9.07
2023-01-28T13:35:04.304Z,2.60
2023-01-28T13:45:31.139Z,2.42
2023-01-28T13:56:06.994Z,2.85
2023-01-28T14:06:48.977Z,5.53
2023-01-28T14:16:56.095Z,5.00
2023-01-28T14:27:08.486Z,3.00
2023-01-28T14:37:21.129Z,3.20
2023-01-28T14:48:04.190Z,3.72
2023-01-28T14:58:19.023Z,15.73
2023-01-28T15:08:34.319Z,11.88
2023-01-28T15:18:50.780Z,7.28
2023-01-28T15:28:57.627Z,3.38
2023-01-28T15:39:01.137Z,3.63
2023-01-28T15:49:18.527Z,5.50
2023-01-28T15:59:29.046Z,5.70
2023-01-28T16:09:39.259Z,15.55
2023-01-28T16:20:01.375Z,9.98
2023-01-28T16:30:15.913Z,8.90
2023-01-28T16:40:23.084Z,19.50
2023-01-28T16:50:34.779Z,12.18
2023-01-28T17:00:42.619Z,8.27
2023-01-28T17:21:34.456Z,16.70
2023-01-28T17:31:41.717Z,8.38
2023-01-28T17:41:44.989Z,11.05
2023-01-28T17:51:49.877Z,8.70
2023-01-28T18:01:54.997Z,10.65
2023-01-28T18:12:01.658Z,11.63
2023-01-28T18:22:05.651Z,7.70
2023-01-28T18:32:10.422Z,7.82
2023-01-28T18:42:13.623Z,4.70
2023-01-28T18:52:18.210Z,9.38
2023-01-28T19:02:22.924Z,5.18
2023-01-28T19:12:27.675Z,9.60
2023-01-28T19:22:31.901Z,10.32
2023-01-28T19:32:36.491Z,9.65
2023-01-28T19:42:42.090Z,11.98
2023-01-28T19:52:46.599Z,13.75
2023-01-28T20:02:53.859Z,10.35
2023-01-28T20:13:11.491Z,12.07
2023-01-28T20:33:54.502Z,11.50
2023-01-28T20:44:03.860Z,9.93
2023-01-28T21:15:15.553Z,8.90
2023-01-28T21:25:25.719Z,8.63
2023-01-28T21:35:30.680Z,10.25
2023-01-28T21:45:36.651Z,13.77
2023-01-28T21:55:41.020Z,6.07
2023-01-28T22:05:45.236Z,6.00
2023-01-28T22:15:56.400Z,9.02
2023-01-28T22:26:01.743Z,12.98
2023-01-28T22:36:09.092Z,8.90
2023-01-28T22:46:12.704Z,10.48
2023-01-28T22:56:21.049Z,7.28
2023-01-28T23:06:26.520Z,3.72
2023-01-28T23:16:49.854Z,5.95
2023-01-28T23:26:57.186Z,4.53
2023-01-28T23:37:02.302Z,6.38
2023-01-28T23:47:05.353Z,3.67
2023-01-28T23:57:10.145Z,2.53
